TFM - Tactical Decision Aid (Experimental) INFO Settings
ID: Runway Winds: CIG/VIS Threshold: METAR Board: Map:

KCAE - Columbia Metro

Updated at: 1010 UTC 12 Dec 2017
Latest TAF at: 0857 UTC 12 Dec 2017

TAF Board

Time0956Z12/11Z12/12Z12/13Z12/14Z12/15Z12/16Z12/17Z12/18Z12/19Z12/20Z12/21Z12/22Z12/23Z
TypeOBSPRVLPRVLPRVLPRVLPRVLPRVLPRVLPRVLPRVLPRVLPRVLPRVLPRVL
VIS10>6>6>6>6>6>6>6>6>6>6>6>6>6
CIG----------------------------
CoverSCTSCTSCTSCTSCTSCTSCTSCTSCTSCTSCTSCTSCTSCT
FltCatVFRVFRVFRVFRVFRVFRVFRVFRVFRVFRVFRVFRVFRVFR
WX----------------------------
WDir250240240240270270270280280280280280280280
WSpd777711111115151515151515
WGst--------20202025252525252525
TAF
KCAE 120857Z 1209/1306 24007KT P6SM SCT250 WS018/27040KT
  FM121400 27011G20KT P6SM SCT250
  FM121700 28015G25KT P6SM SCT040
  FM130000 28012G20KT P6SM SKC


METAR
KCAE 120956Z 25007KT 10SM SCT150 07/03 A2983 RMK AO2 SLP101 T00670028
KCAE 120856Z 23007KT 10SM CLR 07/03 A2985 RMK AO2 SLP108 T00720028 56021

TAF/METAR Board Legend

Potential Impact
  None Marginal Slight Moderate High
Visibility (sm) >5 3≤X≤5 2≤X<3 0.5≤X<2 <0.5
Ceiling (100 ft) >30 10≤X≤30 6≤X<10 2≤X<6 <2
Wind Speed (kt) <10 10≤X<20 20≤X<30 ≥30
Wind Gust (kt) <15 15≤X<25 25≤X<35 ≥35
Weather No Wx Reported VCTS -TS,-FZRA TS,FZRA +TS,+FZRA